createdAt,value
2019-03-09T00:00:47.789Z,5.00
2019-03-09T00:03:19.657Z,5.00
2019-03-09T00:05:51.692Z,5.00
2019-03-09T00:08:23.472Z,5.00
2019-03-09T00:10:55.825Z,5.00
2019-03-09T00:13:28.030Z,5.00
2019-03-09T00:16:00.175Z,5.00
2019-03-09T00:18:31.979Z,5.00
2019-03-09T00:21:06.307Z,4.90
2019-03-09T00:24:01.825Z,4.90
2019-03-09T00:26:49.165Z,4.80
2019-03-09T00:29:43.940Z,4.70
2019-03-09T00:32:21.297Z,4.70
2019-03-09T00:34:54.088Z,4.80
2019-03-09T00:37:27.834Z,4.80
2019-03-09T00:40:03.086Z,4.80
2019-03-09T00:42:37.742Z,4.80
2019-03-09T00:45:11.137Z,4.60
2019-03-09T00:47:46.302Z,4.50
2019-03-09T00:50:23.009Z,4.40
2019-03-09T00:52:56.723Z,4.40
2019-03-09T00:55:32.667Z,4.30
2019-03-09T00:58:06.639Z,4.20
2019-03-09T01:00:40.822Z,4.20
2019-03-09T01:03:13.951Z,4.20
2019-03-09T01:05:48.605Z,4.10
2019-03-09T01:08:22.034Z,4.00
2019-03-09T01:10:55.553Z,3.90
2019-03-09T01:13:28.938Z,3.80
2019-03-09T01:16:02.630Z,3.70
2019-03-09T01:18:35.432Z,3.70
2019-03-09T01:21:08.429Z,3.60
2019-03-09T01:23:43.169Z,3.60
2019-03-09T01:26:19.266Z,3.60
2019-03-09T01:28:52.814Z,3.60
2019-03-09T01:31:25.511Z,3.60
2019-03-09T01:33:59.613Z,3.60
2019-03-09T01:36:35.364Z,3.60
2019-03-09T01:39:09.451Z,3.60
2019-03-09T01:41:43.956Z,3.50
2019-03-09T01:44:18.324Z,3.50
2019-03-09T01:46:51.760Z,3.50
2019-03-09T01:49:28.262Z,3.50
2019-03-09T01:52:03.456Z,3.40
2019-03-09T01:54:38.733Z,3.40
2019-03-09T01:57:13.618Z,3.30
2019-03-09T01:59:47.535Z,3.30
2019-03-09T02:02:23.416Z,3.20
2019-03-09T02:04:55.815Z,3.20
2019-03-09T02:07:29.420Z,3.00
2019-03-09T02:10:02.085Z,2.90
2019-03-09T02:12:35.346Z,2.90
2019-03-09T02:15:07.394Z,2.80
2019-03-09T02:17:39.173Z,2.80
2019-03-09T02:20:11.129Z,2.80
2019-03-09T02:22:42.844Z,2.80
2019-03-09T02:25:14.760Z,2.70
2019-03-09T02:27:46.901Z,2.70
2019-03-09T02:30:18.496Z,2.70
2019-03-09T02:32:50.352Z,2.60
2019-03-09T02:35:21.799Z,2.60
2019-03-09T02:37:53.398Z,2.60
2019-03-09T02:40:26.047Z,2.60
2019-03-09T02:42:57.674Z,2.60
2019-03-09T02:45:30.815Z,2.50
2019-03-09T02:48:02.438Z,2.50
2019-03-09T02:50:34.070Z,2.50
2019-03-09T02:53:05.687Z,2.50
2019-03-09T02:55:37.555Z,2.50
2019-03-09T02:58:09.419Z,2.50
2019-03-09T03:00:46.438Z,2.50
2019-03-09T03:03:18.027Z,2.40
2019-03-09T03:05:49.624Z,2.40
2019-03-09T03:08:21.165Z,2.40
2019-03-09T03:10:52.871Z,2.30
2019-03-09T03:13:24.559Z,2.30
2019-03-09T03:15:56.134Z,2.30
2019-03-09T03:18:27.717Z,2.30
2019-03-09T03:20:59.447Z,2.30
2019-03-09T03:23:31.048Z,2.30
2019-03-09T03:26:02.820Z,2.20
2019-03-09T03:28:34.643Z,2.20
2019-03-09T03:31:06.374Z,2.00
2019-03-09T03:33:37.966Z,2.00
2019-03-09T03:36:09.833Z,1.90
2019-03-09T03:38:41.583Z,1.90
2019-03-09T03:41:13.245Z,1.90
2019-03-09T03:43:44.791Z,1.90
2019-03-09T03:46:16.563Z,1.90
2019-03-09T03:48:48.181Z,2.00
2019-03-09T03:51:20.052Z,2.00
2019-03-09T03:53:51.783Z,2.00
2019-03-09T03:56:24.595Z,1.90
2019-03-09T03:58:56.372Z,1.90
2019-03-09T04:01:28.106Z,1.80
2019-03-09T04:03:59.804Z,1.70
2019-03-09T04:06:32.191Z,1.60
2019-03-09T04:09:04.981Z,1.50
2019-03-09T04:11:37.094Z,1.40
2019-03-09T04:14:08.667Z,1.40
2019-03-09T04:16:40.215Z,1.40
2019-03-09T04:19:11.840Z,1.40
2019-03-09T04:21:43.937Z,1.50
2019-03-09T04:24:15.536Z,1.50
2019-03-09T04:26:47.168Z,1.60
2019-03-09T04:29:18.766Z,1.60
2019-03-09T04:31:50.503Z,1.60
2019-03-09T04:34:22.104Z,1.70
2019-03-09T04:37:00.869Z,1.70
2019-03-09T04:39:32.607Z,1.60
2019-03-09T04:42:04.057Z,1.60
2019-03-09T04:44:35.781Z,1.50
2019-03-09T04:47:07.430Z,1.40
2019-03-09T04:49:38.831Z,1.30
2019-03-09T04:52:10.491Z,1.20
2019-03-09T04:54:42.121Z,1.20
2019-03-09T04:57:13.635Z,1.30
2019-03-09T04:59:45.255Z,1.40
2019-03-09T05:02:16.802Z,1.50
2019-03-09T05:04:51.275Z,1.60
2019-03-09T05:07:42.580Z,1.70
2019-03-09T05:10:22.423Z,1.70
2019-03-09T05:12:58.399Z,1.50
2019-03-09T05:15:30.004Z,1.40
2019-03-09T05:18:01.694Z,1.40
2019-03-09T05:20:33.353Z,1.30
2019-03-09T05:23:04.849Z,1.20
2019-03-09T05:25:36.460Z,1.10
2019-03-09T05:28:08.002Z,1.00
2019-03-09T05:30:44.254Z,1.00
2019-03-09T05:33:15.851Z,0.90
2019-03-09T05:35:47.977Z,0.90
2019-03-09T05:38:20.060Z,1.00
2019-03-09T05:40:51.691Z,1.00
2019-03-09T05:43:23.367Z,1.00
2019-03-09T05:45:54.790Z,1.10
2019-03-09T05:48:26.451Z,1.10
2019-03-09T05:50:58.075Z,1.20
2019-03-09T05:53:29.744Z,1.30
2019-03-09T05:56:01.254Z,1.40
2019-03-09T05:58:33.122Z,1.40
2019-03-09T06:01:04.956Z,1.50
2019-03-09T06:03:36.901Z,1.50
2019-03-09T06:06:17.775Z,1.60
2019-03-09T06:08:51.098Z,1.90
2019-03-09T06:11:23.025Z,2.20
2019-03-09T06:13:54.584Z,2.70
2019-03-09T06:16:26.177Z,3.20
2019-03-09T06:18:57.731Z,3.60
2019-03-09T06:21:29.215Z,3.80
2019-03-09T06:24:01.276Z,4.10
2019-03-09T06:26:32.845Z,4.50
2019-03-09T06:29:04.711Z,5.10
2019-03-09T06:31:36.401Z,5.10
2019-03-09T06:34:08.038Z,5.80
2019-03-09T06:37:02.263Z,6.10
2019-03-09T06:39:38.652Z,6.50
2019-03-09T06:42:50.145Z,6.80
2019-03-09T06:45:22.673Z,7.60
2019-03-09T06:47:54.265Z,8.30
2019-03-09T06:50:26.195Z,8.50
2019-03-09T06:52:57.933Z,8.20
2019-03-09T06:55:29.686Z,9.10
2019-03-09T06:58:01.776Z,9.50
2019-03-09T07:00:42.779Z,9.10
2019-03-09T07:03:14.897Z,8.80
2019-03-09T07:05:46.662Z,9.40
2019-03-09T07:08:18.297Z,9.80
2019-03-09T07:10:49.878Z,10.50
2019-03-09T07:13:21.409Z,10.80
2019-03-09T07:15:53.072Z,11.00
2019-03-09T07:18:44.974Z,11.10
2019-03-09T07:21:16.941Z,11.50
2019-03-09T07:23:48.643Z,11.50
2019-03-09T07:26:20.406Z,11.80
2019-03-09T07:28:52.036Z,12.10
2019-03-09T07:31:24.321Z,12.60
2019-03-09T07:34:24.887Z,12.90
2019-03-09T07:36:56.714Z,13.00
2019-03-09T07:39:28.318Z,12.90
2019-03-09T07:41:59.987Z,13.50
2019-03-09T07:44:31.541Z,13.60
2019-03-09T07:47:03.291Z,13.50
2019-03-09T07:49:35.180Z,13.30
2019-03-09T07:52:38.448Z,14.00
2019-03-09T07:55:13.568Z,15.30
2019-03-09T07:57:45.693Z,15.40
2019-03-09T08:00:19.538Z,15.80
2019-03-09T08:02:51.403Z,17.30
2019-03-09T08:05:22.918Z,18.00
2019-03-09T08:07:55.257Z,18.00
2019-03-09T08:10:27.023Z,18.30
2019-03-09T08:12:58.894Z,18.10
2019-03-09T08:15:31.049Z,18.10
2019-03-09T08:18:02.662Z,18.00
2019-03-09T08:20:34.247Z,18.50
2019-03-09T08:23:06.004Z,18.90
2019-03-09T08:25:38.456Z,19.20
2019-03-09T08:28:10.432Z,20.40
2019-03-09T08:30:42.384Z,20.50
2019-03-09T08:33:14.321Z,20.20
2019-03-09T08:35:46.000Z,19.70
2019-03-09T08:38:17.562Z,19.50
2019-03-09T08:40:49.515Z,19.70
2019-03-09T08:43:21.195Z,19.60
2019-03-09T08:45:53.039Z,20.30
2019-03-09T08:48:25.325Z,20.50
2019-03-09T08:50:57.757Z,21.40
2019-03-09T08:53:31.283Z,22.10
2019-03-09T08:56:03.240Z,22.00
2019-03-09T08:58:35.133Z,23.00
2019-03-09T09:01:08.963Z,23.50
2019-03-09T09:03:40.938Z,23.80
2019-03-09T09:06:12.780Z,23.30
2019-03-09T09:08:44.548Z,23.40
2019-03-09T09:11:17.711Z,23.30
2019-03-09T09:13:50.155Z,23.60
2019-03-09T09:16:21.806Z,22.90
2019-03-09T09:18:53.518Z,22.90
2019-03-09T09:21:25.195Z,23.30
2019-03-09T09:23:56.809Z,23.50
2019-03-09T09:26:28.672Z,23.80
2019-03-09T09:29:00.506Z,23.30
2019-03-09T09:31:32.209Z,22.70
2019-03-09T09:34:04.365Z,22.20
2019-03-09T09:36:37.847Z,22.60
2019-03-09T09:39:10.683Z,23.40
2019-03-09T09:41:42.630Z,23.80
2019-03-09T09:44:14.381Z,23.90
2019-03-09T09:46:46.022Z,24.40
2019-03-09T09:49:18.026Z,24.90
2019-03-09T09:51:49.938Z,22.60
2019-03-09T09:54:21.523Z,22.20
2019-03-09T09:56:54.565Z,21.80
2019-03-09T09:59:26.336Z,22.20
2019-03-09T10:01:58.220Z,22.70
2019-03-09T10:04:30.020Z,22.70
2019-03-09T10:07:01.846Z,22.70
2019-03-09T10:09:33.914Z,21.00
2019-03-09T10:12:05.982Z,20.20
2019-03-09T10:14:37.581Z,21.50
2019-03-09T10:17:09.542Z,21.00
2019-03-09T10:19:41.190Z,21.80
2019-03-09T10:22:14.480Z,21.90
2019-03-09T10:24:46.552Z,23.10
2019-03-09T10:27:18.623Z,24.40
2019-03-09T10:29:50.142Z,24.00
2019-03-09T10:32:22.085Z,23.60
2019-03-09T10:34:53.939Z,24.20
2019-03-09T10:37:25.923Z,24.50
2019-03-09T10:39:58.009Z,25.10
2019-03-09T10:42:29.726Z,25.20
2019-03-09T10:45:03.420Z,25.40
2019-03-09T10:47:35.034Z,23.50
2019-03-09T10:50:08.798Z,23.40
2019-03-09T10:52:40.510Z,24.40
2019-03-09T10:55:16.310Z,24.50
2019-03-09T10:57:48.166Z,25.10
2019-03-09T11:00:31.139Z,24.30
2019-03-09T11:03:03.009Z,24.30
2019-03-09T11:05:34.973Z,25.40
2019-03-09T11:08:07.116Z,24.70
2019-03-09T11:10:38.883Z,23.40
2019-03-09T11:13:11.521Z,22.40
2019-03-09T11:15:43.991Z,21.00
2019-03-09T11:18:15.691Z,20.30
2019-03-09T11:20:48.309Z,19.90
2019-03-09T11:23:20.620Z,20.80
2019-03-09T11:25:52.556Z,22.20
2019-03-09T11:28:24.497Z,21.80
2019-03-09T11:30:56.229Z,22.20
2019-03-09T11:33:28.086Z,22.00
2019-03-09T11:35:59.990Z,22.40
2019-03-09T11:38:31.700Z,22.00
2019-03-09T11:41:03.534Z,21.60
2019-03-09T11:43:35.274Z,21.30
2019-03-09T11:46:07.693Z,21.00
2019-03-09T11:48:42.772Z,20.80
2019-03-09T11:51:14.774Z,21.30
2019-03-09T11:53:46.551Z,22.70
2019-03-09T11:56:19.613Z,24.00
2019-03-09T11:58:51.219Z,24.80
2019-03-09T12:01:23.547Z,24.30
2019-03-09T12:03:55.860Z,23.40
2019-03-09T12:06:28.477Z,23.40
2019-03-09T12:09:00.938Z,22.90
2019-03-09T12:11:32.605Z,22.60
2019-03-09T12:14:04.596Z,22.60
2019-03-09T12:16:36.238Z,23.20
2019-03-09T12:19:08.183Z,22.90
2019-03-09T12:21:40.034Z,22.50
2019-03-09T12:24:16.394Z,22.20
2019-03-09T12:26:48.863Z,21.60
2019-03-09T12:29:20.657Z,21.50
2019-03-09T12:31:52.392Z,21.30
2019-03-09T12:34:24.378Z,21.30
2019-03-09T12:36:57.219Z,21.30
2019-03-09T12:39:28.943Z,21.30
2019-03-09T12:42:00.759Z,21.30
2019-03-09T12:44:33.583Z,21.60
2019-03-09T12:47:05.697Z,21.70
2019-03-09T12:49:37.688Z,21.80
2019-03-09T12:52:10.274Z,21.60
2019-03-09T12:54:42.179Z,21.20
2019-03-09T12:57:13.822Z,21.40
2019-03-09T12:59:45.707Z,21.30
2019-03-09T13:02:18.051Z,21.70
2019-03-09T13:04:51.169Z,22.60
2019-03-09T13:07:24.652Z,22.80
2019-03-09T13:09:56.853Z,23.60
2019-03-09T13:12:28.559Z,23.90
2019-03-09T13:15:00.412Z,23.90
2019-03-09T13:17:35.071Z,23.70
2019-03-09T13:20:07.133Z,24.20
2019-03-09T13:22:39.070Z,23.70
2019-03-09T13:25:11.547Z,23.50
2019-03-09T13:27:43.588Z,23.80
2019-03-09T13:30:18.455Z,24.90
2019-03-09T13:32:50.420Z,23.60
2019-03-09T13:35:22.452Z,24.60
2019-03-09T13:37:54.427Z,24.80
2019-03-09T13:40:26.576Z,24.90
2019-03-09T13:42:58.619Z,25.30
2019-03-09T13:45:30.928Z,24.40
2019-03-09T13:48:02.620Z,23.30
2019-03-09T13:50:34.943Z,22.80
2019-03-09T13:53:09.251Z,22.00
2019-03-09T13:55:41.208Z,21.70
2019-03-09T13:58:14.935Z,21.10
2019-03-09T14:00:47.419Z,21.90
2019-03-09T14:03:20.122Z,22.70
2019-03-09T14:05:52.341Z,23.50
2019-03-09T14:08:25.214Z,23.20
2019-03-09T14:10:58.008Z,22.60
2019-03-09T14:13:30.142Z,22.70
2019-03-09T14:16:02.046Z,23.10
2019-03-09T14:18:34.642Z,23.20
2019-03-09T14:21:06.724Z,22.80
2019-03-09T14:23:39.031Z,23.10
2019-03-09T14:26:12.008Z,23.00
2019-03-09T14:28:43.996Z,23.20
2019-03-09T14:31:17.821Z,23.10
2019-03-09T14:33:50.747Z,23.30
2019-03-09T14:36:23.696Z,23.40
2019-03-09T14:38:57.650Z,23.50
2019-03-09T14:41:30.434Z,23.90
2019-03-09T14:44:02.092Z,23.90
2019-03-09T14:46:34.038Z,23.10
2019-03-09T14:49:06.822Z,22.60
2019-03-09T14:51:38.916Z,22.70
2019-03-09T14:54:11.545Z,22.40
2019-03-09T14:56:43.421Z,22.40
2019-03-09T14:59:16.346Z,22.10
2019-03-09T15:01:48.899Z,21.70
2019-03-09T15:04:21.044Z,21.60
2019-03-09T15:06:53.051Z,21.70
2019-03-09T15:09:25.322Z,22.10
2019-03-09T15:11:57.713Z,22.20
2019-03-09T15:14:29.429Z,22.40
2019-03-09T15:17:02.407Z,22.40
2019-03-09T15:19:35.998Z,22.60
2019-03-09T15:22:07.990Z,22.40
2019-03-09T15:24:40.178Z,22.40
2019-03-09T15:27:12.221Z,22.10
2019-03-09T15:29:44.576Z,21.80
2019-03-09T15:32:17.416Z,22.00
2019-03-09T15:34:50.396Z,21.70
2019-03-09T15:37:22.467Z,21.30
2019-03-09T15:39:54.346Z,21.50
2019-03-09T15:42:28.031Z,21.80
2019-03-09T15:45:00.113Z,21.70
2019-03-09T15:47:32.990Z,21.60
2019-03-09T15:50:05.139Z,21.60
2019-03-09T15:52:37.014Z,21.30
2019-03-09T15:55:09.997Z,21.00
2019-03-09T15:57:42.137Z,20.60
2019-03-09T16:00:20.039Z,20.40
2019-03-09T16:02:52.597Z,20.00
2019-03-09T16:05:27.222Z,19.90
2019-03-09T16:08:01.163Z,19.60
2019-03-09T16:10:35.103Z,19.40
2019-03-09T16:13:09.425Z,19.50
2019-03-09T16:15:46.103Z,19.10
2019-03-09T16:18:19.771Z,18.90
2019-03-09T16:20:52.905Z,18.30
2019-03-09T16:23:26.889Z,18.10
2019-03-09T16:26:00.868Z,17.70
2019-03-09T16:28:35.236Z,17.50
2019-03-09T16:31:08.831Z,17.30
2019-03-09T16:33:42.811Z,17.10
2019-03-09T16:36:16.881Z,17.10
2019-03-09T16:38:50.375Z,17.10
2019-03-09T16:41:23.381Z,17.00
2019-03-09T16:43:56.690Z,16.90
2019-03-09T16:46:29.841Z,16.80
2019-03-09T16:49:03.465Z,16.70
2019-03-09T16:51:36.771Z,16.60
2019-03-09T16:54:10.465Z,16.50
2019-03-09T16:56:43.509Z,16.40
2019-03-09T16:59:16.692Z,16.30
2019-03-09T17:01:49.888Z,16.30
2019-03-09T17:04:23.124Z,16.30
2019-03-09T17:06:55.621Z,16.20
2019-03-09T17:09:29.084Z,16.00
2019-03-09T17:12:02.812Z,15.90
2019-03-09T17:14:36.441Z,15.80
2019-03-09T17:17:10.583Z,15.80
2019-03-09T17:19:45.430Z,15.70
2019-03-09T17:22:19.103Z,15.60
2019-03-09T17:24:52.438Z,15.50
2019-03-09T17:27:29.469Z,15.40
2019-03-09T17:30:03.271Z,15.30
2019-03-09T17:32:36.942Z,15.10
2019-03-09T17:35:10.610Z,14.80
2019-03-09T17:37:45.513Z,14.70
2019-03-09T17:40:20.186Z,14.50
2019-03-09T17:42:54.404Z,14.30
2019-03-09T17:45:28.528Z,14.20
2019-03-09T17:48:02.290Z,14.00
2019-03-09T17:50:36.244Z,13.90
2019-03-09T17:53:10.467Z,13.80
2019-03-09T17:55:44.419Z,13.60
2019-03-09T17:58:18.373Z,13.50
2019-03-09T18:00:52.761Z,13.40
2019-03-09T18:03:26.015Z,13.30
2019-03-09T18:06:00.731Z,13.20
2019-03-09T18:08:33.640Z,13.10
2019-03-09T18:11:08.020Z,13.10
2019-03-09T18:13:40.586Z,13.00
2019-03-09T18:16:17.918Z,12.90
2019-03-09T18:18:51.397Z,12.80
2019-03-09T18:21:23.998Z,12.80
2019-03-09T18:23:55.833Z,12.80
2019-03-09T18:26:27.935Z,12.70
2019-03-09T18:29:00.440Z,12.60
2019-03-09T18:31:32.378Z,12.50
2019-03-09T18:34:05.625Z,12.40
2019-03-09T18:36:37.892Z,12.40
2019-03-09T18:39:10.814Z,12.30
2019-03-09T18:41:42.897Z,12.20
2019-03-09T18:44:15.236Z,12.20
2019-03-09T18:46:47.156Z,12.10
2019-03-09T18:49:19.077Z,12.00
2019-03-09T18:51:53.066Z,11.90
2019-03-09T18:54:25.849Z,11.70
2019-03-09T18:56:58.250Z,11.60
2019-03-09T18:59:30.219Z,11.50
2019-03-09T19:02:02.535Z,11.50
2019-03-09T19:04:35.852Z,11.40
2019-03-09T19:07:08.543Z,11.40
2019-03-09T19:09:40.706Z,11.30
2019-03-09T19:12:13.045Z,11.20
2019-03-09T19:14:45.748Z,11.10
2019-03-09T19:17:18.189Z,11.00
2019-03-09T19:19:50.870Z,10.90
2019-03-09T19:22:23.864Z,10.80
2019-03-09T19:24:56.713Z,10.70
2019-03-09T19:27:31.177Z,10.70
2019-03-09T19:30:03.637Z,10.60
2019-03-09T19:32:36.504Z,10.60
2019-03-09T19:35:09.189Z,10.50
2019-03-09T19:37:41.543Z,10.30
2019-03-09T19:40:16.220Z,10.20
2019-03-09T19:42:49.538Z,10.10
2019-03-09T19:45:22.892Z,10.10
2019-03-09T19:47:56.005Z,10.00
2019-03-09T19:50:28.538Z,9.90
2019-03-09T19:53:01.311Z,9.90
2019-03-09T19:55:34.372Z,9.80
2019-03-09T19:58:07.835Z,9.70
2019-03-09T20:00:41.080Z,9.60
2019-03-09T20:03:14.235Z,9.60
2019-03-09T20:05:47.849Z,9.50
2019-03-09T20:08:21.865Z,9.50
2019-03-09T20:10:55.539Z,9.60
2019-03-09T20:13:29.150Z,9.60
2019-03-09T20:16:02.873Z,9.60
2019-03-09T20:18:36.294Z,9.40
2019-03-09T20:21:09.705Z,9.30
2019-03-09T20:23:43.040Z,9.10
2019-03-09T20:26:16.214Z,9.00
2019-03-09T20:28:50.518Z,8.80
2019-03-09T20:31:23.374Z,8.90
2019-03-09T20:33:56.502Z,9.00
2019-03-09T20:36:29.571Z,9.00
2019-03-09T20:39:02.766Z,9.10
2019-03-09T20:41:35.497Z,9.00
2019-03-09T20:44:08.805Z,9.00
2019-03-09T20:46:42.340Z,8.90
2019-03-09T20:49:15.399Z,8.70
2019-03-09T20:51:48.768Z,8.50
2019-03-09T20:54:22.269Z,8.40
2019-03-09T20:56:56.420Z,8.30
2019-03-09T20:59:29.852Z,8.20
2019-03-09T21:02:02.964Z,8.10
2019-03-09T21:04:36.518Z,8.20
2019-03-09T21:07:09.867Z,8.10
2019-03-09T21:09:43.203Z,8.20
2019-03-09T21:12:16.117Z,8.30
2019-03-09T21:14:50.220Z,8.50
2019-03-09T21:17:23.215Z,8.60
2019-03-09T21:19:56.301Z,8.60
2019-03-09T21:22:29.662Z,8.70
2019-03-09T21:25:02.404Z,8.70
2019-03-09T21:27:34.916Z,8.70
2019-03-09T21:30:07.644Z,8.60
2019-03-09T21:32:39.397Z,8.40
2019-03-09T21:35:11.601Z,8.40
2019-03-09T21:37:43.415Z,8.30
2019-03-09T21:40:15.583Z,8.20
2019-03-09T21:42:47.455Z,8.00
2019-03-09T21:45:19.580Z,8.00
2019-03-09T21:47:51.663Z,7.90
2019-03-09T21:50:23.482Z,7.90
2019-03-09T21:52:55.355Z,7.90
2019-03-09T21:55:28.630Z,7.90
2019-03-09T21:58:00.512Z,7.80
2019-03-09T22:00:33.106Z,7.70
2019-03-09T22:03:04.990Z,7.60
2019-03-09T22:05:36.911Z,7.60
2019-03-09T22:08:08.792Z,7.50
2019-03-09T22:10:41.076Z,7.40
2019-03-09T22:13:12.997Z,7.30
2019-03-09T22:15:45.174Z,7.20
2019-03-09T22:18:17.260Z,7.20
2019-03-09T22:20:49.065Z,7.10
2019-03-09T22:23:21.293Z,7.20
2019-03-09T22:25:53.407Z,7.20
2019-03-09T22:28:25.754Z,7.20
2019-03-09T22:30:57.775Z,7.20
2019-03-09T22:33:31.033Z,7.20
2019-03-09T22:36:02.905Z,7.00
2019-03-09T22:38:35.533Z,6.80
2019-03-09T22:41:07.402Z,6.70
2019-03-09T22:43:39.237Z,6.50
2019-03-09T22:46:11.062Z,6.50
2019-03-09T22:48:44.359Z,6.20
2019-03-09T22:51:16.014Z,6.20
2019-03-09T22:53:48.159Z,6.20
2019-03-09T22:56:20.856Z,6.30
2019-03-09T22:58:52.626Z,6.20
2019-03-09T23:01:24.982Z,6.20
2019-03-09T23:03:58.040Z,6.10
2019-03-09T23:06:30.057Z,6.10
2019-03-09T23:09:05.834Z,6.00
2019-03-09T23:11:37.449Z,6.00
2019-03-09T23:14:09.339Z,6.00
2019-03-09T23:16:40.860Z,6.00
2019-03-09T23:19:12.586Z,6.00
2019-03-09T23:21:44.740Z,6.00
2019-03-09T23:24:16.549Z,5.90
2019-03-09T23:26:49.060Z,6.00
2019-03-09T23:29:20.819Z,6.10
2019-03-09T23:31:52.591Z,6.10
2019-03-09T23:34:24.384Z,6.10
2019-03-09T23:36:56.205Z,6.10
2019-03-09T23:39:28.081Z,6.00
2019-03-09T23:41:59.920Z,6.10
2019-03-09T23:44:31.687Z,6.00
2019-03-09T23:47:03.563Z,6.10
2019-03-09T23:49:35.330Z,6.10
2019-03-09T23:52:07.155Z,6.10
2019-03-09T23:54:41.592Z,6.10
2019-03-09T23:57:13.142Z,6.10
2019-03-09T23:59:44.874Z,6.20
